<?xml version="1.0" encoding="UTF-8" standalone="no" ?>
<gpx xmlns="http://www.topografix.com/GPX/1/1" xmlns:xsi="http://www.w3.org/2001/XMLSchema-instance" xsi:schemaLocation="http://www.topografix.com/GPX/1/1 http://www.topografix.com/GPX/1/1/gpx.xsd" version="1.1" creator="VisuGPX - https://www.visugpx.com">
  <metadata>
    <name>Entrainement 8 mai</name>
    <desc><![CDATA[Entraînement au Ferion (très petite forme) ! ]]></desc>
  </metadata>
  <trk>
    <name><![CDATA[8 mai 2017]]></name>
    <cmt><![CDATA[13:44:48]]></cmt>
    <desc><![CDATA[comment ...]]></desc>
    <trkseg>
      <trkpt lat="43.85787" lon="7.22881">
        <ele>518</ele>
        <time>2017-05-08T11:44:14Z</time>
      </trkpt>
      <trkpt lat="43.85789" lon="7.22883">
        <ele>522</ele>
        <time>2017-05-08T11:44:43Z</time>
      </trkpt>
      <trkpt lat="43.85788" lon="7.22887">
        <ele>517</ele>
        <time>2017-05-08T11:45:13Z</time>
      </trkpt>
      <trkpt lat="43.85785" lon="7.22891">
        <ele>514</ele>
        <time>2017-05-08T11:45:16Z</time>
      </trkpt>
      <trkpt lat="43.85786" lon="7.22892">
        <ele>511</ele>
        <time>2017-05-08T11:45:47Z</time>
      </trkpt>
      <trkpt lat="43.85786" lon="7.22891">
        <ele>512</ele>
        <time>2017-05-08T11:46:17Z</time>
      </trkpt>
      <trkpt lat="43.85797" lon="7.22899">
        <ele>512</ele>
        <time>2017-05-08T11:46:46Z</time>
      </trkpt>
      <trkpt lat="43.85816" lon="7.2292">
        <ele>481</ele>
        <time>2017-05-08T11:47:16Z</time>
      </trkpt>
      <trkpt lat="43.85871" lon="7.22919">
        <ele>513</ele>
        <time>2017-05-08T11:47:46Z</time>
      </trkpt>
      <trkpt lat="43.85872" lon="7.22919">
        <ele>513</ele>
        <time>2017-05-08T11:47:47Z</time>
      </trkpt>
      <trkpt lat="43.85921" lon="7.22925">
        <ele>519</ele>
        <time>2017-05-08T11:48:19Z</time>
      </trkpt>
      <trkpt lat="43.85966" lon="7.22957">
        <ele>552</ele>
        <time>2017-05-08T11:48:48Z</time>
      </trkpt>
      <trkpt lat="43.85997" lon="7.22915">
        <ele>529</ele>
        <time>2017-05-08T11:49:18Z</time>
      </trkpt>
      <trkpt lat="43.86009" lon="7.22944">
        <ele>525</ele>
        <time>2017-05-08T11:49:49Z</time>
      </trkpt>
      <trkpt lat="43.86009" lon="7.22988">
        <ele>527</ele>
        <time>2017-05-08T11:50:18Z</time>
      </trkpt>
      <trkpt lat="43.86015" lon="7.23053">
        <ele>516</ele>
        <time>2017-05-08T11:50:48Z</time>
      </trkpt>
      <trkpt lat="43.86014" lon="7.23112">
        <ele>510</ele>
        <time>2017-05-08T11:51:18Z</time>
      </trkpt>
      <trkpt lat="43.86032" lon="7.23135">
        <ele>500</ele>
        <time>2017-05-08T11:51:21Z</time>
      </trkpt>
      <trkpt lat="43.86014" lon="7.23182">
        <ele>517</ele>
        <time>2017-05-08T11:51:51Z</time>
      </trkpt>
      <trkpt lat="43.86011" lon="7.23228">
        <ele>521</ele>
        <time>2017-05-08T11:52:21Z</time>
      </trkpt>
      <trkpt lat="43.86009" lon="7.23213">
        <ele>545</ele>
        <time>2017-05-08T11:52:24Z</time>
      </trkpt>
      <trkpt lat="43.86019" lon="7.23274">
        <ele>547</ele>
        <time>2017-05-08T11:52:54Z</time>
      </trkpt>
      <trkpt lat="43.86019" lon="7.23274">
        <ele>549</ele>
        <time>2017-05-08T11:52:54Z</time>
      </trkpt>
      <trkpt lat="43.86052" lon="7.23303">
        <ele>551</ele>
        <time>2017-05-08T11:53:26Z</time>
      </trkpt>
      <trkpt lat="43.86062" lon="7.23316">
        <ele>554</ele>
        <time>2017-05-08T11:53:56Z</time>
      </trkpt>
      <trkpt lat="43.86067" lon="7.23312">
        <ele>554</ele>
        <time>2017-05-08T11:54:25Z</time>
      </trkpt>
      <trkpt lat="43.86068" lon="7.23346">
        <ele>558</ele>
        <time>2017-05-08T11:54:57Z</time>
      </trkpt>
      <trkpt lat="43.86076" lon="7.23347">
        <ele>559</ele>
        <time>2017-05-08T11:55:26Z</time>
      </trkpt>
      <trkpt lat="43.86077" lon="7.23342">
        <ele>574</ele>
        <time>2017-05-08T11:55:57Z</time>
      </trkpt>
      <trkpt lat="43.86103" lon="7.23345">
        <ele>576</ele>
        <time>2017-05-08T11:56:26Z</time>
      </trkpt>
      <trkpt lat="43.86105" lon="7.23375">
        <ele>569</ele>
        <time>2017-05-08T11:56:58Z</time>
      </trkpt>
      <trkpt lat="43.86114" lon="7.23403">
        <ele>575</ele>
        <time>2017-05-08T11:57:24Z</time>
      </trkpt>
      <trkpt lat="43.86138" lon="7.23413">
        <ele>585</ele>
        <time>2017-05-08T11:57:56Z</time>
      </trkpt>
      <trkpt lat="43.86163" lon="7.23429">
        <ele>543</ele>
        <time>2017-05-08T11:58:27Z</time>
      </trkpt>
      <trkpt lat="43.86168" lon="7.23425">
        <ele>582</ele>
        <time>2017-05-08T11:58:57Z</time>
      </trkpt>
      <trkpt lat="43.86165" lon="7.23428">
        <ele>584</ele>
        <time>2017-05-08T11:58:57Z</time>
      </trkpt>
      <trkpt lat="43.86168" lon="7.23439">
        <ele>602</ele>
        <time>2017-05-08T11:59:29Z</time>
      </trkpt>
      <trkpt lat="43.86186" lon="7.2347">
        <ele>605</ele>
        <time>2017-05-08T11:59:59Z</time>
      </trkpt>
      <trkpt lat="43.86189" lon="7.2347">
        <ele>605</ele>
        <time>2017-05-08T11:59:59Z</time>
      </trkpt>
      <trkpt lat="43.86204" lon="7.23481">
        <ele>609</ele>
        <time>2017-05-08T12:00:32Z</time>
      </trkpt>
      <trkpt lat="43.86225" lon="7.23522">
        <ele>602</ele>
        <time>2017-05-08T12:01:02Z</time>
      </trkpt>
      <trkpt lat="43.86223" lon="7.23517">
        <ele>608</ele>
        <time>2017-05-08T12:01:04Z</time>
      </trkpt>
      <trkpt lat="43.8622" lon="7.23525">
        <ele>599</ele>
        <time>2017-05-08T12:01:36Z</time>
      </trkpt>
      <trkpt lat="43.86225" lon="7.23553">
        <ele>639</ele>
        <time>2017-05-08T12:02:05Z</time>
      </trkpt>
      <trkpt lat="43.86237" lon="7.23587">
        <ele>640</ele>
        <time>2017-05-08T12:02:34Z</time>
      </trkpt>
      <trkpt lat="43.86247" lon="7.23608">
        <ele>637</ele>
        <time>2017-05-08T12:02:57Z</time>
      </trkpt>
      <trkpt lat="43.86247" lon="7.23608">
        <ele>637</ele>
        <time>2017-05-08T12:02:57Z</time>
      </trkpt>
      <trkpt lat="43.8623" lon="7.23597">
        <ele>623</ele>
        <time>2017-05-08T12:03:32Z</time>
      </trkpt>
      <trkpt lat="43.8619" lon="7.23605">
        <ele>619</ele>
        <time>2017-05-08T12:04:00Z</time>
      </trkpt>
      <trkpt lat="43.86223" lon="7.23596">
        <ele>616</ele>
        <time>2017-05-08T12:04:31Z</time>
      </trkpt>
      <trkpt lat="43.86196" lon="7.23682">
        <ele>630</ele>
        <time>2017-05-08T12:05:00Z</time>
      </trkpt>
      <trkpt lat="43.86188" lon="7.23694">
        <ele>641</ele>
        <time>2017-05-08T12:05:31Z</time>
      </trkpt>
      <trkpt lat="43.8619" lon="7.23731">
        <ele>646</ele>
        <time>2017-05-08T12:06:00Z</time>
      </trkpt>
      <trkpt lat="43.86183" lon="7.23746">
        <ele>659</ele>
        <time>2017-05-08T12:06:30Z</time>
      </trkpt>
      <trkpt lat="43.86161" lon="7.23764">
        <ele>651</ele>
        <time>2017-05-08T12:07:00Z</time>
      </trkpt>
      <trkpt lat="43.86155" lon="7.23785">
        <ele>646</ele>
        <time>2017-05-08T12:07:30Z</time>
      </trkpt>
      <trkpt lat="43.86152" lon="7.23795">
        <ele>646</ele>
        <time>2017-05-08T12:08:01Z</time>
      </trkpt>
      <trkpt lat="43.8614" lon="7.23795">
        <ele>654</ele>
        <time>2017-05-08T12:08:30Z</time>
      </trkpt>
      <trkpt lat="43.86147" lon="7.23808">
        <ele>647</ele>
        <time>2017-05-08T12:09:02Z</time>
      </trkpt>
      <trkpt lat="43.86152" lon="7.23853">
        <ele>672</ele>
        <time>2017-05-08T12:09:31Z</time>
      </trkpt>
      <trkpt lat="43.86124" lon="7.23906">
        <ele>678</ele>
        <time>2017-05-08T12:10:00Z</time>
      </trkpt>
      <trkpt lat="43.86137" lon="7.2393">
        <ele>684</ele>
        <time>2017-05-08T12:10:31Z</time>
      </trkpt>
      <trkpt lat="43.86146" lon="7.23973">
        <ele>688</ele>
        <time>2017-05-08T12:11:00Z</time>
      </trkpt>
      <trkpt lat="43.86139" lon="7.24017">
        <ele>691</ele>
        <time>2017-05-08T12:11:30Z</time>
      </trkpt>
      <trkpt lat="43.86138" lon="7.24013">
        <ele>693</ele>
        <time>2017-05-08T12:11:30Z</time>
      </trkpt>
      <trkpt lat="43.86151" lon="7.24047">
        <ele>686</ele>
        <time>2017-05-08T12:12:02Z</time>
      </trkpt>
      <trkpt lat="43.86146" lon="7.24113">
        <ele>694</ele>
        <time>2017-05-08T12:12:30Z</time>
      </trkpt>
      <trkpt lat="43.86178" lon="7.2413">
        <ele>687</ele>
        <time>2017-05-08T12:13:02Z</time>
      </trkpt>
      <trkpt lat="43.86201" lon="7.2417">
        <ele>682</ele>
        <time>2017-05-08T12:13:32Z</time>
      </trkpt>
      <trkpt lat="43.86193" lon="7.24224">
        <ele>688</ele>
        <time>2017-05-08T12:14:03Z</time>
      </trkpt>
      <trkpt lat="43.86186" lon="7.24247">
        <ele>685</ele>
        <time>2017-05-08T12:14:33Z</time>
      </trkpt>
      <trkpt lat="43.8619" lon="7.24246">
        <ele>685</ele>
        <time>2017-05-08T12:14:34Z</time>
      </trkpt>
      <trkpt lat="43.86201" lon="7.24283">
        <ele>690</ele>
        <time>2017-05-08T12:15:05Z</time>
      </trkpt>
      <trkpt lat="43.86201" lon="7.24286">
        <ele>693</ele>
        <time>2017-05-08T12:15:06Z</time>
      </trkpt>
      <trkpt lat="43.86196" lon="7.2434">
        <ele>694</ele>
        <time>2017-05-08T12:15:38Z</time>
      </trkpt>
      <trkpt lat="43.86196" lon="7.24377">
        <ele>701</ele>
        <time>2017-05-08T12:16:07Z</time>
      </trkpt>
      <trkpt lat="43.86193" lon="7.24421">
        <ele>697</ele>
        <time>2017-05-08T12:16:36Z</time>
      </trkpt>
      <trkpt lat="43.86195" lon="7.24468">
        <ele>698</ele>
        <time>2017-05-08T12:17:08Z</time>
      </trkpt>
      <trkpt lat="43.86196" lon="7.24525">
        <ele>714</ele>
        <time>2017-05-08T12:17:38Z</time>
      </trkpt>
      <trkpt lat="43.86207" lon="7.24563">
        <ele>697</ele>
        <time>2017-05-08T12:18:07Z</time>
      </trkpt>
      <trkpt lat="43.86225" lon="7.24608">
        <ele>697</ele>
        <time>2017-05-08T12:18:37Z</time>
      </trkpt>
      <trkpt lat="43.86203" lon="7.24638">
        <ele>696</ele>
        <time>2017-05-08T12:19:07Z</time>
      </trkpt>
      <trkpt lat="43.86196" lon="7.24647">
        <ele>699</ele>
        <time>2017-05-08T12:19:09Z</time>
      </trkpt>
      <trkpt lat="43.86167" lon="7.24686">
        <ele>712</ele>
        <time>2017-05-08T12:19:37Z</time>
      </trkpt>
      <trkpt lat="43.86176" lon="7.24705">
        <ele>697</ele>
        <time>2017-05-08T12:20:09Z</time>
      </trkpt>
      <trkpt lat="43.8618" lon="7.24706">
        <ele>695</ele>
        <time>2017-05-08T12:20:40Z</time>
      </trkpt>
      <trkpt lat="43.86174" lon="7.24703">
        <ele>697</ele>
        <time>2017-05-08T12:21:12Z</time>
      </trkpt>
      <trkpt lat="43.86174" lon="7.24704">
        <ele>691</ele>
        <time>2017-05-08T12:21:41Z</time>
      </trkpt>
      <trkpt lat="43.86175" lon="7.24705">
        <ele>692</ele>
        <time>2017-05-08T12:22:09Z</time>
      </trkpt>
      <trkpt lat="43.86176" lon="7.24704">
        <ele>697</ele>
        <time>2017-05-08T12:22:39Z</time>
      </trkpt>
      <trkpt lat="43.86179" lon="7.24707">
        <ele>692</ele>
        <time>2017-05-08T12:23:09Z</time>
      </trkpt>
      <trkpt lat="43.8618" lon="7.24765">
        <ele>706</ele>
        <time>2017-05-08T12:23:37Z</time>
      </trkpt>
      <trkpt lat="43.86182" lon="7.24811">
        <ele>726</ele>
        <time>2017-05-08T12:24:10Z</time>
      </trkpt>
      <trkpt lat="43.86193" lon="7.24837">
        <ele>727</ele>
        <time>2017-05-08T12:24:39Z</time>
      </trkpt>
      <trkpt lat="43.86215" lon="7.24844">
        <ele>718</ele>
        <time>2017-05-08T12:25:09Z</time>
      </trkpt>
      <trkpt lat="43.86207" lon="7.24883">
        <ele>722</ele>
        <time>2017-05-08T12:25:39Z</time>
      </trkpt>
      <trkpt lat="43.86211" lon="7.2488">
        <ele>725</ele>
        <time>2017-05-08T12:25:39Z</time>
      </trkpt>
      <trkpt lat="43.86221" lon="7.24871">
        <ele>734</ele>
        <time>2017-05-08T12:26:11Z</time>
      </trkpt>
      <trkpt lat="43.86243" lon="7.24902">
        <ele>749</ele>
        <time>2017-05-08T12:26:41Z</time>
      </trkpt>
      <trkpt lat="43.86252" lon="7.24921">
        <ele>752</ele>
        <time>2017-05-08T12:27:11Z</time>
      </trkpt>
      <trkpt lat="43.86251" lon="7.24922">
        <ele>754</ele>
        <time>2017-05-08T12:27:11Z</time>
      </trkpt>
      <trkpt lat="43.86244" lon="7.24969">
        <ele>758</ele>
        <time>2017-05-08T12:27:43Z</time>
      </trkpt>
      <trkpt lat="43.86274" lon="7.24976">
        <ele>746</ele>
        <time>2017-05-08T12:28:13Z</time>
      </trkpt>
      <trkpt lat="43.86282" lon="7.25004">
        <ele>748</ele>
        <time>2017-05-08T12:28:42Z</time>
      </trkpt>
      <trkpt lat="43.8629" lon="7.25045">
        <ele>795</ele>
        <time>2017-05-08T12:29:13Z</time>
      </trkpt>
      <trkpt lat="43.86294" lon="7.25029">
        <ele>762</ele>
        <time>2017-05-08T12:29:44Z</time>
      </trkpt>
      <trkpt lat="43.86295" lon="7.25037">
        <ele>768</ele>
        <time>2017-05-08T12:30:15Z</time>
      </trkpt>
      <trkpt lat="43.86296" lon="7.2504">
        <ele>772</ele>
        <time>2017-05-08T12:30:45Z</time>
      </trkpt>
      <trkpt lat="43.86295" lon="7.25041">
        <ele>772</ele>
        <time>2017-05-08T12:31:14Z</time>
      </trkpt>
      <trkpt lat="43.86295" lon="7.25041">
        <ele>773</ele>
        <time>2017-05-08T12:31:44Z</time>
      </trkpt>
      <trkpt lat="43.86295" lon="7.25041">
        <ele>774</ele>
        <time>2017-05-08T12:32:14Z</time>
      </trkpt>
      <trkpt lat="43.86295" lon="7.25043">
        <ele>777</ele>
        <time>2017-05-08T12:32:14Z</time>
      </trkpt>
      <trkpt lat="43.86295" lon="7.25042">
        <ele>785</ele>
        <time>2017-05-08T12:32:47Z</time>
      </trkpt>
      <trkpt lat="43.86295" lon="7.2504">
        <ele>774</ele>
        <time>2017-05-08T12:33:17Z</time>
      </trkpt>
      <trkpt lat="43.86295" lon="7.2504">
        <ele>769</ele>
        <time>2017-05-08T12:33:47Z</time>
      </trkpt>
      <trkpt lat="43.86296" lon="7.2504">
        <ele>770</ele>
        <time>2017-05-08T12:33:49Z</time>
      </trkpt>
      <trkpt lat="43.86314" lon="7.25062">
        <ele>766</ele>
        <time>2017-05-08T12:34:19Z</time>
      </trkpt>
      <trkpt lat="43.86331" lon="7.25091">
        <ele>779</ele>
        <time>2017-05-08T12:34:50Z</time>
      </trkpt>
      <trkpt lat="43.86342" lon="7.25139">
        <ele>790</ele>
        <time>2017-05-08T12:35:20Z</time>
      </trkpt>
      <trkpt lat="43.86354" lon="7.25151">
        <ele>798</ele>
        <time>2017-05-08T12:35:50Z</time>
      </trkpt>
      <trkpt lat="43.86352" lon="7.25159">
        <ele>799</ele>
        <time>2017-05-08T12:35:50Z</time>
      </trkpt>
      <trkpt lat="43.86386" lon="7.25162">
        <ele>795</ele>
        <time>2017-05-08T12:36:23Z</time>
      </trkpt>
      <trkpt lat="43.86378" lon="7.25176">
        <ele>803</ele>
        <time>2017-05-08T12:36:53Z</time>
      </trkpt>
      <trkpt lat="43.86371" lon="7.2522">
        <ele>809</ele>
        <time>2017-05-08T12:37:22Z</time>
      </trkpt>
      <trkpt lat="43.86377" lon="7.25265">
        <ele>814</ele>
        <time>2017-05-08T12:37:52Z</time>
      </trkpt>
      <trkpt lat="43.8639" lon="7.25275">
        <ele>789</ele>
        <time>2017-05-08T12:38:23Z</time>
      </trkpt>
      <trkpt lat="43.86395" lon="7.25281">
        <ele>805</ele>
        <time>2017-05-08T12:38:53Z</time>
      </trkpt>
      <trkpt lat="43.86395" lon="7.25341">
        <ele>850</ele>
        <time>2017-05-08T12:39:22Z</time>
      </trkpt>
      <trkpt lat="43.86419" lon="7.25361">
        <ele>851</ele>
        <time>2017-05-08T12:39:52Z</time>
      </trkpt>
      <trkpt lat="43.86413" lon="7.2536">
        <ele>849</ele>
        <time>2017-05-08T12:39:52Z</time>
      </trkpt>
      <trkpt lat="43.86418" lon="7.25386">
        <ele>848</ele>
        <time>2017-05-08T12:40:25Z</time>
      </trkpt>
      <trkpt lat="43.86432" lon="7.25375">
        <ele>849</ele>
        <time>2017-05-08T12:40:54Z</time>
      </trkpt>
      <trkpt lat="43.86454" lon="7.25369">
        <ele>840</ele>
        <time>2017-05-08T12:41:24Z</time>
      </trkpt>
      <trkpt lat="43.86454" lon="7.25376">
        <ele>824</ele>
        <time>2017-05-08T12:41:54Z</time>
      </trkpt>
      <trkpt lat="43.86451" lon="7.25376">
        <ele>838</ele>
        <time>2017-05-08T12:41:57Z</time>
      </trkpt>
      <trkpt lat="43.86461" lon="7.25409">
        <ele>840</ele>
        <time>2017-05-08T12:42:27Z</time>
      </trkpt>
      <trkpt lat="43.8646" lon="7.25409">
        <ele>843</ele>
        <time>2017-05-08T12:42:27Z</time>
      </trkpt>
      <trkpt lat="43.86463" lon="7.25411">
        <ele>841</ele>
        <time>2017-05-08T12:43:00Z</time>
      </trkpt>
      <trkpt lat="43.86463" lon="7.25412">
        <ele>841</ele>
        <time>2017-05-08T12:43:30Z</time>
      </trkpt>
      <trkpt lat="43.86463" lon="7.25412">
        <ele>841</ele>
        <time>2017-05-08T12:43:32Z</time>
      </trkpt>
      <trkpt lat="43.86462" lon="7.25413">
        <ele>845</ele>
        <time>2017-05-08T12:44:03Z</time>
      </trkpt>
      <trkpt lat="43.86485" lon="7.25434">
        <ele>858</ele>
        <time>2017-05-08T12:44:32Z</time>
      </trkpt>
      <trkpt lat="43.86491" lon="7.25453">
        <ele>861</ele>
        <time>2017-05-08T12:45:02Z</time>
      </trkpt>
      <trkpt lat="43.8649" lon="7.25452">
        <ele>863</ele>
        <time>2017-05-08T12:45:32Z</time>
      </trkpt>
      <trkpt lat="43.86493" lon="7.25457">
        <ele>864</ele>
        <time>2017-05-08T12:46:03Z</time>
      </trkpt>
      <trkpt lat="43.86495" lon="7.25457">
        <ele>862</ele>
        <time>2017-05-08T12:46:33Z</time>
      </trkpt>
      <trkpt lat="43.86496" lon="7.25457">
        <ele>861</ele>
        <time>2017-05-08T12:47:04Z</time>
      </trkpt>
      <trkpt lat="43.86496" lon="7.25456">
        <ele>861</ele>
        <time>2017-05-08T12:47:34Z</time>
      </trkpt>
      <trkpt lat="43.86496" lon="7.25456">
        <ele>860</ele>
        <time>2017-05-08T12:48:04Z</time>
      </trkpt>
      <trkpt lat="43.86496" lon="7.25457">
        <ele>860</ele>
        <time>2017-05-08T12:48:04Z</time>
      </trkpt>
      <trkpt lat="43.86496" lon="7.25456">
        <ele>860</ele>
        <time>2017-05-08T12:48:37Z</time>
      </trkpt>
      <trkpt lat="43.86496" lon="7.25457">
        <ele>861</ele>
        <time>2017-05-08T12:49:08Z</time>
      </trkpt>
      <trkpt lat="43.86497" lon="7.25457">
        <ele>861</ele>
        <time>2017-05-08T12:49:39Z</time>
      </trkpt>
      <trkpt lat="43.86496" lon="7.25457">
        <ele>861</ele>
        <time>2017-05-08T12:50:08Z</time>
      </trkpt>
      <trkpt lat="43.86496" lon="7.25456">
        <ele>862</ele>
        <time>2017-05-08T12:50:38Z</time>
      </trkpt>
      <trkpt lat="43.86496" lon="7.25455">
        <ele>862</ele>
        <time>2017-05-08T12:50:38Z</time>
      </trkpt>
      <trkpt lat="43.86496" lon="7.25455">
        <ele>863</ele>
        <time>2017-05-08T12:51:11Z</time>
      </trkpt>
      <trkpt lat="43.86496" lon="7.25455">
        <ele>863</ele>
        <time>2017-05-08T12:51:40Z</time>
      </trkpt>
      <trkpt lat="43.86496" lon="7.25455">
        <ele>863</ele>
        <time>2017-05-08T12:52:13Z</time>
      </trkpt>
      <trkpt lat="43.86496" lon="7.25455">
        <ele>863</ele>
        <time>2017-05-08T12:52:42Z</time>
      </trkpt>
      <trkpt lat="43.86497" lon="7.25458">
        <ele>869</ele>
        <time>2017-05-08T12:53:11Z</time>
      </trkpt>
      <trkpt lat="43.86517" lon="7.25484">
        <ele>869</ele>
        <time>2017-05-08T12:53:41Z</time>
      </trkpt>
      <trkpt lat="43.86531" lon="7.25524">
        <ele>892</ele>
        <time>2017-05-08T12:54:11Z</time>
      </trkpt>
      <trkpt lat="43.86537" lon="7.25559">
        <ele>891</ele>
        <time>2017-05-08T12:54:41Z</time>
      </trkpt>
      <trkpt lat="43.86547" lon="7.25555">
        <ele>892</ele>
        <time>2017-05-08T12:55:11Z</time>
      </trkpt>
      <trkpt lat="43.86559" lon="7.25575">
        <ele>892</ele>
        <time>2017-05-08T12:55:40Z</time>
      </trkpt>
      <trkpt lat="43.86582" lon="7.25612">
        <ele>892</ele>
        <time>2017-05-08T12:56:12Z</time>
      </trkpt>
      <trkpt lat="43.86585" lon="7.25649">
        <ele>917</ele>
        <time>2017-05-08T12:56:41Z</time>
      </trkpt>
      <trkpt lat="43.86604" lon="7.25665">
        <ele>920</ele>
        <time>2017-05-08T12:57:10Z</time>
      </trkpt>
      <trkpt lat="43.86629" lon="7.25688">
        <ele>934</ele>
        <time>2017-05-08T12:57:42Z</time>
      </trkpt>
      <trkpt lat="43.86652" lon="7.25698">
        <ele>940</ele>
        <time>2017-05-08T12:58:11Z</time>
      </trkpt>
      <trkpt lat="43.86663" lon="7.25729">
        <ele>930</ele>
        <time>2017-05-08T12:58:41Z</time>
      </trkpt>
      <trkpt lat="43.86678" lon="7.25762">
        <ele>921</ele>
        <time>2017-05-08T12:59:09Z</time>
      </trkpt>
      <trkpt lat="43.86695" lon="7.25762">
        <ele>920</ele>
        <time>2017-05-08T12:59:41Z</time>
      </trkpt>
      <trkpt lat="43.86714" lon="7.25789">
        <ele>915</ele>
        <time>2017-05-08T13:00:11Z</time>
      </trkpt>
      <trkpt lat="43.86721" lon="7.25814">
        <ele>916</ele>
        <time>2017-05-08T13:00:40Z</time>
      </trkpt>
      <trkpt lat="43.86735" lon="7.25804">
        <ele>931</ele>
        <time>2017-05-08T13:01:11Z</time>
      </trkpt>
      <trkpt lat="43.86747" lon="7.25809">
        <ele>926</ele>
        <time>2017-05-08T13:01:41Z</time>
      </trkpt>
      <trkpt lat="43.8676" lon="7.25813">
        <ele>928</ele>
        <time>2017-05-08T13:02:11Z</time>
      </trkpt>
      <trkpt lat="43.86759" lon="7.25819">
        <ele>935</ele>
        <time>2017-05-08T13:02:11Z</time>
      </trkpt>
      <trkpt lat="43.86756" lon="7.25801">
        <ele>946</ele>
        <time>2017-05-08T13:02:42Z</time>
      </trkpt>
      <trkpt lat="43.8674" lon="7.25767">
        <ele>941</ele>
        <time>2017-05-08T13:03:14Z</time>
      </trkpt>
      <trkpt lat="43.86753" lon="7.25771">
        <ele>941</ele>
        <time>2017-05-08T13:03:43Z</time>
      </trkpt>
      <trkpt lat="43.86773" lon="7.25774">
        <ele>929</ele>
        <time>2017-05-08T13:04:13Z</time>
      </trkpt>
      <trkpt lat="43.86787" lon="7.2579">
        <ele>934</ele>
        <time>2017-05-08T13:04:44Z</time>
      </trkpt>
      <trkpt lat="43.86799" lon="7.25817">
        <ele>964</ele>
        <time>2017-05-08T13:05:13Z</time>
      </trkpt>
      <trkpt lat="43.86812" lon="7.25827">
        <ele>991</ele>
        <time>2017-05-08T13:05:45Z</time>
      </trkpt>
      <trkpt lat="43.86819" lon="7.25819">
        <ele>981</ele>
        <time>2017-05-08T13:06:13Z</time>
      </trkpt>
      <trkpt lat="43.86807" lon="7.258">
        <ele>986</ele>
        <time>2017-05-08T13:06:47Z</time>
      </trkpt>
      <trkpt lat="43.86814" lon="7.25805">
        <ele>992</ele>
        <time>2017-05-08T13:07:13Z</time>
      </trkpt>
      <trkpt lat="43.86822" lon="7.25854">
        <ele>997</ele>
        <time>2017-05-08T13:07:45Z</time>
      </trkpt>
      <trkpt lat="43.86857" lon="7.25883">
        <ele>982</ele>
        <time>2017-05-08T13:08:14Z</time>
      </trkpt>
      <trkpt lat="43.86878" lon="7.25868">
        <ele>971</ele>
        <time>2017-05-08T13:08:44Z</time>
      </trkpt>
      <trkpt lat="43.86871" lon="7.25886">
        <ele>985</ele>
        <time>2017-05-08T13:08:46Z</time>
      </trkpt>
      <trkpt lat="43.86893" lon="7.25886">
        <ele>989</ele>
        <time>2017-05-08T13:09:17Z</time>
      </trkpt>
      <trkpt lat="43.86906" lon="7.2591">
        <ele>1001</ele>
        <time>2017-05-08T13:09:47Z</time>
      </trkpt>
      <trkpt lat="43.86904" lon="7.25927">
        <ele>1010</ele>
        <time>2017-05-08T13:10:16Z</time>
      </trkpt>
      <trkpt lat="43.86922" lon="7.25943">
        <ele>1012</ele>
        <time>2017-05-08T13:10:47Z</time>
      </trkpt>
      <trkpt lat="43.86931" lon="7.25947">
        <ele>1009</ele>
        <time>2017-05-08T13:11:17Z</time>
      </trkpt>
      <trkpt lat="43.86939" lon="7.25956">
        <ele>1006</ele>
        <time>2017-05-08T13:11:20Z</time>
      </trkpt>
      <trkpt lat="43.86942" lon="7.25956">
        <ele>1006</ele>
        <time>2017-05-08T13:11:51Z</time>
      </trkpt>
      <trkpt lat="43.86945" lon="7.25958">
        <ele>1005</ele>
        <time>2017-05-08T13:12:20Z</time>
      </trkpt>
      <trkpt lat="43.86949" lon="7.25958">
        <ele>1009</ele>
        <time>2017-05-08T13:12:52Z</time>
      </trkpt>
      <trkpt lat="43.86973" lon="7.25962">
        <ele>1015</ele>
        <time>2017-05-08T13:13:21Z</time>
      </trkpt>
      <trkpt lat="43.86989" lon="7.25948">
        <ele>1032</ele>
        <time>2017-05-08T13:13:50Z</time>
      </trkpt>
      <trkpt lat="43.86975" lon="7.25961">
        <ele>1025</ele>
        <time>2017-05-08T13:14:21Z</time>
      </trkpt>
      <trkpt lat="43.86979" lon="7.25958">
        <ele>1021</ele>
        <time>2017-05-08T13:14:50Z</time>
      </trkpt>
      <trkpt lat="43.86981" lon="7.25956">
        <ele>1029</ele>
        <time>2017-05-08T13:15:21Z</time>
      </trkpt>
      <trkpt lat="43.87007" lon="7.2595">
        <ele>1036</ele>
        <time>2017-05-08T13:15:51Z</time>
      </trkpt>
      <trkpt lat="43.87006" lon="7.25956">
        <ele>1049</ele>
        <time>2017-05-08T13:15:51Z</time>
      </trkpt>
      <trkpt lat="43.87028" lon="7.2596">
        <ele>1057</ele>
        <time>2017-05-08T13:16:23Z</time>
      </trkpt>
      <trkpt lat="43.87024" lon="7.25918">
        <ele>1040</ele>
        <time>2017-05-08T13:16:54Z</time>
      </trkpt>
      <trkpt lat="43.87027" lon="7.25886">
        <ele>1040</ele>
        <time>2017-05-08T13:17:24Z</time>
      </trkpt>
      <trkpt lat="43.87025" lon="7.25908">
        <ele>1045</ele>
        <time>2017-05-08T13:17:53Z</time>
      </trkpt>
      <trkpt lat="43.87029" lon="7.25911">
        <ele>1050</ele>
        <time>2017-05-08T13:18:26Z</time>
      </trkpt>
      <trkpt lat="43.8703" lon="7.25912">
        <ele>1052</ele>
        <time>2017-05-08T13:18:55Z</time>
      </trkpt>
      <trkpt lat="43.87049" lon="7.25947">
        <ele>1039</ele>
        <time>2017-05-08T13:19:23Z</time>
      </trkpt>
      <trkpt lat="43.87033" lon="7.2594">
        <ele>1060</ele>
        <time>2017-05-08T13:19:55Z</time>
      </trkpt>
      <trkpt lat="43.87068" lon="7.2594">
        <ele>1066</ele>
        <time>2017-05-08T13:20:26Z</time>
      </trkpt>
      <trkpt lat="43.87098" lon="7.25918">
        <ele>1064</ele>
        <time>2017-05-08T13:20:54Z</time>
      </trkpt>
      <trkpt lat="43.87107" lon="7.25947">
        <ele>1072</ele>
        <time>2017-05-08T13:21:23Z</time>
      </trkpt>
      <trkpt lat="43.87114" lon="7.25969">
        <ele>1080</ele>
        <time>2017-05-08T13:21:54Z</time>
      </trkpt>
      <trkpt lat="43.87134" lon="7.25986">
        <ele>1093</ele>
        <time>2017-05-08T13:22:24Z</time>
      </trkpt>
      <trkpt lat="43.87143" lon="7.26019">
        <ele>1088</ele>
        <time>2017-05-08T13:22:54Z</time>
      </trkpt>
      <trkpt lat="43.87145" lon="7.26023">
        <ele>1067</ele>
        <time>2017-05-08T13:22:57Z</time>
      </trkpt>
      <trkpt lat="43.87137" lon="7.26055">
        <ele>1066</ele>
        <time>2017-05-08T13:23:26Z</time>
      </trkpt>
      <trkpt lat="43.87126" lon="7.26077">
        <ele>1097</ele>
        <time>2017-05-08T13:23:56Z</time>
      </trkpt>
      <trkpt lat="43.87108" lon="7.26095">
        <ele>1084</ele>
        <time>2017-05-08T13:24:28Z</time>
      </trkpt>
      <trkpt lat="43.87074" lon="7.26121">
        <ele>1090</ele>
        <time>2017-05-08T13:24:58Z</time>
      </trkpt>
      <trkpt lat="43.87075" lon="7.26134">
        <ele>1086</ele>
        <time>2017-05-08T13:24:58Z</time>
      </trkpt>
      <trkpt lat="43.87084" lon="7.26191">
        <ele>1084</ele>
        <time>2017-05-08T13:25:30Z</time>
      </trkpt>
      <trkpt lat="43.87076" lon="7.2624">
        <ele>1096</ele>
        <time>2017-05-08T13:26:01Z</time>
      </trkpt>
      <trkpt lat="43.87097" lon="7.26273">
        <ele>1081</ele>
        <time>2017-05-08T13:26:31Z</time>
      </trkpt>
      <trkpt lat="43.87099" lon="7.26273">
        <ele>1084</ele>
        <time>2017-05-08T13:26:31Z</time>
      </trkpt>
      <trkpt lat="43.87096" lon="7.26316">
        <ele>1111</ele>
        <time>2017-05-08T13:27:03Z</time>
      </trkpt>
      <trkpt lat="43.87096" lon="7.26384">
        <ele>1091</ele>
        <time>2017-05-08T13:27:34Z</time>
      </trkpt>
      <trkpt lat="43.87092" lon="7.26416">
        <ele>1114</ele>
        <time>2017-05-08T13:28:04Z</time>
      </trkpt>
      <trkpt lat="43.87099" lon="7.26424">
        <ele>1118</ele>
        <time>2017-05-08T13:28:04Z</time>
      </trkpt>
      <trkpt lat="43.87108" lon="7.26464">
        <ele>1100</ele>
        <time>2017-05-08T13:28:37Z</time>
      </trkpt>
      <trkpt lat="43.8713" lon="7.26527">
        <ele>1102</ele>
        <time>2017-05-08T13:29:06Z</time>
      </trkpt>
      <trkpt lat="43.87099" lon="7.26532">
        <ele>1101</ele>
        <time>2017-05-08T13:29:37Z</time>
      </trkpt>
      <trkpt lat="43.87061" lon="7.26522">
        <ele>1086</ele>
        <time>2017-05-08T13:30:06Z</time>
      </trkpt>
      <trkpt lat="43.8705" lon="7.26549">
        <ele>1085</ele>
        <time>2017-05-08T13:30:36Z</time>
      </trkpt>
      <trkpt lat="43.87049" lon="7.26552">
        <ele>1090</ele>
        <time>2017-05-08T13:30:37Z</time>
      </trkpt>
      <trkpt lat="43.87015" lon="7.26593">
        <ele>1094</ele>
        <time>2017-05-08T13:31:09Z</time>
      </trkpt>
      <trkpt lat="43.87031" lon="7.26621">
        <ele>1124</ele>
        <time>2017-05-08T13:31:39Z</time>
      </trkpt>
      <trkpt lat="43.87012" lon="7.26611">
        <ele>1121</ele>
        <time>2017-05-08T13:32:10Z</time>
      </trkpt>
      <trkpt lat="43.87006" lon="7.26631">
        <ele>1125</ele>
        <time>2017-05-08T13:32:40Z</time>
      </trkpt>
      <trkpt lat="43.87009" lon="7.26625">
        <ele>1162</ele>
        <time>2017-05-08T13:33:10Z</time>
      </trkpt>
      <trkpt lat="43.87009" lon="7.26616">
        <ele>1169</ele>
        <time>2017-05-08T13:33:10Z</time>
      </trkpt>
      <trkpt lat="43.86989" lon="7.26656">
        <ele>1173</ele>
        <time>2017-05-08T13:33:41Z</time>
      </trkpt>
      <trkpt lat="43.86991" lon="7.26679">
        <ele>1147</ele>
        <time>2017-05-08T13:34:12Z</time>
      </trkpt>
      <trkpt lat="43.86981" lon="7.2669">
        <ele>1154</ele>
        <time>2017-05-08T13:34:43Z</time>
      </trkpt>
      <trkpt lat="43.87008" lon="7.26742">
        <ele>1151</ele>
        <time>2017-05-08T13:35:14Z</time>
      </trkpt>
      <trkpt lat="43.86987" lon="7.26718">
        <ele>1166</ele>
        <time>2017-05-08T13:35:43Z</time>
      </trkpt>
      <trkpt lat="43.86986" lon="7.2672">
        <ele>1167</ele>
        <time>2017-05-08T13:36:15Z</time>
      </trkpt>
      <trkpt lat="43.86974" lon="7.26747">
        <ele>1158</ele>
        <time>2017-05-08T13:36:43Z</time>
      </trkpt>
      <trkpt lat="43.86965" lon="7.26759">
        <ele>1189</ele>
        <time>2017-05-08T13:37:12Z</time>
      </trkpt>
      <trkpt lat="43.86962" lon="7.2678">
        <ele>1182</ele>
        <time>2017-05-08T13:37:43Z</time>
      </trkpt>
      <trkpt lat="43.86961" lon="7.26768">
        <ele>1186</ele>
        <time>2017-05-08T13:38:13Z</time>
      </trkpt>
      <trkpt lat="43.86961" lon="7.26787">
        <ele>1183</ele>
        <time>2017-05-08T13:38:42Z</time>
      </trkpt>
      <trkpt lat="43.86975" lon="7.26878">
        <ele>1158</ele>
        <time>2017-05-08T13:39:15Z</time>
      </trkpt>
      <trkpt lat="43.86959" lon="7.26802">
        <ele>1185</ele>
        <time>2017-05-08T13:39:43Z</time>
      </trkpt>
      <trkpt lat="43.86939" lon="7.26789">
        <ele>1224</ele>
        <time>2017-05-08T13:40:14Z</time>
      </trkpt>
      <trkpt lat="43.86949" lon="7.26797">
        <ele>1207</ele>
        <time>2017-05-08T13:40:45Z</time>
      </trkpt>
      <trkpt lat="43.86942" lon="7.26811">
        <ele>1194</ele>
        <time>2017-05-08T13:41:14Z</time>
      </trkpt>
      <trkpt lat="43.86919" lon="7.26832">
        <ele>1195</ele>
        <time>2017-05-08T13:41:44Z</time>
      </trkpt>
      <trkpt lat="43.86924" lon="7.2683">
        <ele>1198</ele>
        <time>2017-05-08T13:41:46Z</time>
      </trkpt>
      <trkpt lat="43.8694" lon="7.26844">
        <ele>1199</ele>
        <time>2017-05-08T13:42:18Z</time>
      </trkpt>
      <trkpt lat="43.86923" lon="7.26848">
        <ele>1219</ele>
        <time>2017-05-08T13:42:47Z</time>
      </trkpt>
      <trkpt lat="43.86928" lon="7.2687">
        <ele>1212</ele>
        <time>2017-05-08T13:43:17Z</time>
      </trkpt>
      <trkpt lat="43.8693" lon="7.26868">
        <ele>1212</ele>
        <time>2017-05-08T13:43:20Z</time>
      </trkpt>
      <trkpt lat="43.86941" lon="7.26862">
        <ele>1215</ele>
        <time>2017-05-08T13:43:51Z</time>
      </trkpt>
      <trkpt lat="43.86936" lon="7.2686">
        <ele>1219</ele>
        <time>2017-05-08T13:44:21Z</time>
      </trkpt>
      <trkpt lat="43.86936" lon="7.26862">
        <ele>1221</ele>
        <time>2017-05-08T13:44:22Z</time>
      </trkpt>
      <trkpt lat="43.86934" lon="7.26867">
        <ele>1222</ele>
        <time>2017-05-08T13:44:54Z</time>
      </trkpt>
      <trkpt lat="43.86934" lon="7.26888">
        <ele>1230</ele>
        <time>2017-05-08T13:45:26Z</time>
      </trkpt>
      <trkpt lat="43.86935" lon="7.26896">
        <ele>1223</ele>
        <time>2017-05-08T13:45:53Z</time>
      </trkpt>
      <trkpt lat="43.86935" lon="7.269">
        <ele>1227</ele>
        <time>2017-05-08T13:46:26Z</time>
      </trkpt>
      <trkpt lat="43.86935" lon="7.26902">
        <ele>1228</ele>
        <time>2017-05-08T13:46:55Z</time>
      </trkpt>
      <trkpt lat="43.86935" lon="7.26902">
        <ele>1230</ele>
        <time>2017-05-08T13:47:24Z</time>
      </trkpt>
      <trkpt lat="43.86938" lon="7.26904">
        <ele>1229</ele>
        <time>2017-05-08T13:47:54Z</time>
      </trkpt>
      <trkpt lat="43.8694" lon="7.26906">
        <ele>1229</ele>
        <time>2017-05-08T13:47:55Z</time>
      </trkpt>
      <trkpt lat="43.86957" lon="7.26929">
        <ele>1228</ele>
        <time>2017-05-08T13:48:26Z</time>
      </trkpt>
      <trkpt lat="43.86948" lon="7.26982">
        <ele>1228</ele>
        <time>2017-05-08T13:48:59Z</time>
      </trkpt>
      <trkpt lat="43.86956" lon="7.2694">
        <ele>1239</ele>
        <time>2017-05-08T13:49:28Z</time>
      </trkpt>
      <trkpt lat="43.86953" lon="7.26944">
        <ele>1243</ele>
        <time>2017-05-08T13:49:58Z</time>
      </trkpt>
      <trkpt lat="43.86954" lon="7.26946">
        <ele>1241</ele>
        <time>2017-05-08T13:49:58Z</time>
      </trkpt>
      <trkpt lat="43.86951" lon="7.26945">
        <ele>1249</ele>
        <time>2017-05-08T13:50:30Z</time>
      </trkpt>
      <trkpt lat="43.86945" lon="7.26951">
        <ele>1263</ele>
        <time>2017-05-08T13:51:00Z</time>
      </trkpt>
      <trkpt lat="43.86947" lon="7.26951">
        <ele>1273</ele>
        <time>2017-05-08T13:51:31Z</time>
      </trkpt>
      <trkpt lat="43.86944" lon="7.2696">
        <ele>1269</ele>
        <time>2017-05-08T13:52:01Z</time>
      </trkpt>
      <trkpt lat="43.86944" lon="7.26965">
        <ele>1260</ele>
        <time>2017-05-08T13:52:01Z</time>
      </trkpt>
      <trkpt lat="43.86939" lon="7.26988">
        <ele>1268</ele>
        <time>2017-05-08T13:52:33Z</time>
      </trkpt>
      <trkpt lat="43.86937" lon="7.26987">
        <ele>1268</ele>
        <time>2017-05-08T13:53:04Z</time>
      </trkpt>
      <trkpt lat="43.86936" lon="7.26987">
        <ele>1266</ele>
        <time>2017-05-08T13:53:34Z</time>
      </trkpt>
      <trkpt lat="43.86935" lon="7.26987">
        <ele>1268</ele>
        <time>2017-05-08T13:54:04Z</time>
      </trkpt>
      <trkpt lat="43.86935" lon="7.2699">
        <ele>1268</ele>
        <time>2017-05-08T13:54:34Z</time>
      </trkpt>
      <trkpt lat="43.86935" lon="7.26992">
        <ele>1267</ele>
        <time>2017-05-08T13:54:34Z</time>
      </trkpt>
      <trkpt lat="43.86936" lon="7.26992">
        <ele>1266</ele>
        <time>2017-05-08T13:55:08Z</time>
      </trkpt>
      <trkpt lat="43.86947" lon="7.26995">
        <ele>1299</ele>
        <time>2017-05-08T13:55:35Z</time>
      </trkpt>
      <trkpt lat="43.86935" lon="7.26998">
        <ele>1273</ele>
        <time>2017-05-08T13:56:07Z</time>
      </trkpt>
      <trkpt lat="43.8694" lon="7.27025">
        <ele>1306</ele>
        <time>2017-05-08T13:56:37Z</time>
      </trkpt>
      <trkpt lat="43.8694" lon="7.27009">
        <ele>1308</ele>
        <time>2017-05-08T13:57:07Z</time>
      </trkpt>
      <trkpt lat="43.86958" lon="7.27011">
        <ele>1318</ele>
        <time>2017-05-08T13:57:36Z</time>
      </trkpt>
      <trkpt lat="43.86948" lon="7.27025">
        <ele>1308</ele>
        <time>2017-05-08T13:58:07Z</time>
      </trkpt>
      <trkpt lat="43.86951" lon="7.27031">
        <ele>1308</ele>
        <time>2017-05-08T13:58:37Z</time>
      </trkpt>
      <trkpt lat="43.86952" lon="7.2703">
        <ele>1308</ele>
        <time>2017-05-08T13:58:38Z</time>
      </trkpt>
      <trkpt lat="43.86953" lon="7.2703">
        <ele>1308</ele>
        <time>2017-05-08T13:59:11Z</time>
      </trkpt>
      <trkpt lat="43.86954" lon="7.2703">
        <ele>1308</ele>
        <time>2017-05-08T13:59:40Z</time>
      </trkpt>
      <trkpt lat="43.86955" lon="7.27028">
        <ele>1308</ele>
        <time>2017-05-08T14:00:12Z</time>
      </trkpt>
      <trkpt lat="43.86955" lon="7.27026">
        <ele>1308</ele>
        <time>2017-05-08T14:00:40Z</time>
      </trkpt>
      <trkpt lat="43.86955" lon="7.27027">
        <ele>1308</ele>
        <time>2017-05-08T14:01:10Z</time>
      </trkpt>
      <trkpt lat="43.86954" lon="7.27027">
        <ele>1307</ele>
        <time>2017-05-08T14:01:12Z</time>
      </trkpt>
      <trkpt lat="43.86954" lon="7.27027">
        <ele>1308</ele>
        <time>2017-05-08T14:01:44Z</time>
      </trkpt>
      <trkpt lat="43.86954" lon="7.27028">
        <ele>1307</ele>
        <time>2017-05-08T14:02:14Z</time>
      </trkpt>
      <trkpt lat="43.86952" lon="7.2703">
        <ele>1308</ele>
        <time>2017-05-08T14:02:43Z</time>
      </trkpt>
      <trkpt lat="43.8695" lon="7.27061">
        <ele>1320</ele>
        <time>2017-05-08T14:03:15Z</time>
      </trkpt>
      <trkpt lat="43.86947" lon="7.27061">
        <ele>1318</ele>
        <time>2017-05-08T14:03:44Z</time>
      </trkpt>
      <trkpt lat="43.86944" lon="7.27064">
        <ele>1315</ele>
        <time>2017-05-08T14:04:13Z</time>
      </trkpt>
      <trkpt lat="43.86944" lon="7.27067">
        <ele>1313</ele>
        <time>2017-05-08T14:04:44Z</time>
      </trkpt>
      <trkpt lat="43.86963" lon="7.27108">
        <ele>1311</ele>
        <time>2017-05-08T14:05:14Z</time>
      </trkpt>
      <trkpt lat="43.86961" lon="7.27114">
        <ele>1306</ele>
        <time>2017-05-08T14:05:14Z</time>
      </trkpt>
      <trkpt lat="43.86982" lon="7.27118">
        <ele>1314</ele>
        <time>2017-05-08T14:05:49Z</time>
      </trkpt>
      <trkpt lat="43.86978" lon="7.2711">
        <ele>1328</ele>
        <time>2017-05-08T14:06:17Z</time>
      </trkpt>
      <trkpt lat="43.86979" lon="7.27109">
        <ele>1321</ele>
        <time>2017-05-08T14:06:48Z</time>
      </trkpt>
      <trkpt lat="43.86982" lon="7.27117">
        <ele>1317</ele>
        <time>2017-05-08T14:07:17Z</time>
      </trkpt>
      <trkpt lat="43.86983" lon="7.27118">
        <ele>1321</ele>
        <time>2017-05-08T14:07:47Z</time>
      </trkpt>
      <trkpt lat="43.86983" lon="7.27118">
        <ele>1331</ele>
        <time>2017-05-08T14:07:49Z</time>
      </trkpt>
      <trkpt lat="43.86982" lon="7.27123">
        <ele>1327</ele>
        <time>2017-05-08T14:08:21Z</time>
      </trkpt>
      <trkpt lat="43.87009" lon="7.27172">
        <ele>1384</ele>
        <time>2017-05-08T14:08:49Z</time>
      </trkpt>
      <trkpt lat="43.87014" lon="7.27176">
        <ele>1378</ele>
        <time>2017-05-08T14:09:19Z</time>
      </trkpt>
      <trkpt lat="43.87004" lon="7.27191">
        <ele>1366</ele>
        <time>2017-05-08T14:09:22Z</time>
      </trkpt>
      <trkpt lat="43.87032" lon="7.27211">
        <ele>1373</ele>
        <time>2017-05-08T14:09:51Z</time>
      </trkpt>
      <trkpt lat="43.87018" lon="7.27265">
        <ele>1397</ele>
        <time>2017-05-08T14:10:23Z</time>
      </trkpt>
      <trkpt lat="43.87022" lon="7.27281">
        <ele>1366</ele>
        <time>2017-05-08T14:10:53Z</time>
      </trkpt>
      <trkpt lat="43.87022" lon="7.27315">
        <ele>1374</ele>
        <time>2017-05-08T14:11:22Z</time>
      </trkpt>
      <trkpt lat="43.87016" lon="7.27263">
        <ele>1379</ele>
        <time>2017-05-08T14:11:53Z</time>
      </trkpt>
      <trkpt lat="43.86995" lon="7.27245">
        <ele>1374</ele>
        <time>2017-05-08T14:12:23Z</time>
      </trkpt>
      <trkpt lat="43.86954" lon="7.27227">
        <ele>1380</ele>
        <time>2017-05-08T14:12:53Z</time>
      </trkpt>
      <trkpt lat="43.86957" lon="7.27221">
        <ele>1393</ele>
        <time>2017-05-08T14:12:55Z</time>
      </trkpt>
      <trkpt lat="43.86946" lon="7.27211">
        <ele>1397</ele>
        <time>2017-05-08T14:13:25Z</time>
      </trkpt>
      <trkpt lat="43.86945" lon="7.27209">
        <ele>1399</ele>
        <time>2017-05-08T14:13:25Z</time>
      </trkpt>
      <trkpt lat="43.86914" lon="7.27225">
        <ele>1397</ele>
        <time>2017-05-08T14:13:57Z</time>
      </trkpt>
      <trkpt lat="43.86882" lon="7.27244">
        <ele>1402</ele>
        <time>2017-05-08T14:14:28Z</time>
      </trkpt>
      <trkpt lat="43.86869" lon="7.27244">
        <ele>1388</ele>
        <time>2017-05-08T14:14:58Z</time>
      </trkpt>
      <trkpt lat="43.86866" lon="7.27246">
        <ele>1383</ele>
        <time>2017-05-08T14:14:58Z</time>
      </trkpt>
      <trkpt lat="43.86866" lon="7.27227">
        <ele>1382</ele>
        <time>2017-05-08T14:15:31Z</time>
      </trkpt>
      <trkpt lat="43.86807" lon="7.27254">
        <ele>1402</ele>
        <time>2017-05-08T14:16:01Z</time>
      </trkpt>
      <trkpt lat="43.86786" lon="7.27248">
        <ele>1409</ele>
        <time>2017-05-08T14:16:31Z</time>
      </trkpt>
      <trkpt lat="43.86769" lon="7.27257">
        <ele>1404</ele>
        <time>2017-05-08T14:17:01Z</time>
      </trkpt>
      <trkpt lat="43.86776" lon="7.27243">
        <ele>1402</ele>
        <time>2017-05-08T14:17:30Z</time>
      </trkpt>
      <trkpt lat="43.86797" lon="7.27237">
        <ele>1393</ele>
        <time>2017-05-08T14:18:00Z</time>
      </trkpt>
      <trkpt lat="43.86783" lon="7.27239">
        <ele>1396</ele>
        <time>2017-05-08T14:18:30Z</time>
      </trkpt>
      <trkpt lat="43.86782" lon="7.27239">
        <ele>1398</ele>
        <time>2017-05-08T14:18:30Z</time>
      </trkpt>
      <trkpt lat="43.8678" lon="7.27237">
        <ele>1399</ele>
        <time>2017-05-08T14:19:02Z</time>
      </trkpt>
      <trkpt lat="43.86776" lon="7.27237">
        <ele>1405</ele>
        <time>2017-05-08T14:19:34Z</time>
      </trkpt>
      <trkpt lat="43.86776" lon="7.27236">
        <ele>1407</ele>
        <time>2017-05-08T14:20:04Z</time>
      </trkpt>
      <trkpt lat="43.86777" lon="7.27236">
        <ele>1403</ele>
        <time>2017-05-08T14:20:33Z</time>
      </trkpt>
      <trkpt lat="43.86778" lon="7.27237">
        <ele>1402</ele>
        <time>2017-05-08T14:21:03Z</time>
      </trkpt>
      <trkpt lat="43.86778" lon="7.27237">
        <ele>1401</ele>
        <time>2017-05-08T14:21:32Z</time>
      </trkpt>
      <trkpt lat="43.86778" lon="7.27237">
        <ele>1402</ele>
        <time>2017-05-08T14:22:03Z</time>
      </trkpt>
      <trkpt lat="43.86779" lon="7.27237">
        <ele>1404</ele>
        <time>2017-05-08T14:22:33Z</time>
      </trkpt>
      <trkpt lat="43.86779" lon="7.27237">
        <ele>1404</ele>
        <time>2017-05-08T14:23:03Z</time>
      </trkpt>
      <trkpt lat="43.86779" lon="7.27237">
        <ele>1404</ele>
        <time>2017-05-08T14:23:03Z</time>
      </trkpt>
      <trkpt lat="43.86779" lon="7.27237">
        <ele>1404</ele>
        <time>2017-05-08T14:23:35Z</time>
      </trkpt>
      <trkpt lat="43.86779" lon="7.27238">
        <ele>1404</ele>
        <time>2017-05-08T14:24:05Z</time>
      </trkpt>
      <trkpt lat="43.86779" lon="7.27238">
        <ele>1404</ele>
        <time>2017-05-08T14:24:35Z</time>
      </trkpt>
      <trkpt lat="43.86779" lon="7.27238">
        <ele>1405</ele>
        <time>2017-05-08T14:24:37Z</time>
      </trkpt>
      <trkpt lat="43.86779" lon="7.27238">
        <ele>1405</ele>
        <time>2017-05-08T14:25:07Z</time>
      </trkpt>
      <trkpt lat="43.86779" lon="7.27238">
        <ele>1405</ele>
        <time>2017-05-08T14:25:09Z</time>
      </trkpt>
      <trkpt lat="43.86779" lon="7.27238">
        <ele>1405</ele>
        <time>2017-05-08T14:25:39Z</time>
      </trkpt>
      <trkpt lat="43.86779" lon="7.27238">
        <ele>1405</ele>
        <time>2017-05-08T14:25:39Z</time>
      </trkpt>
      <trkpt lat="43.86779" lon="7.27238">
        <ele>1405</ele>
        <time>2017-05-08T14:26:11Z</time>
      </trkpt>
      <trkpt lat="43.86779" lon="7.27238">
        <ele>1406</ele>
        <time>2017-05-08T14:26:41Z</time>
      </trkpt>
      <trkpt lat="43.86779" lon="7.27238">
        <ele>1405</ele>
        <time>2017-05-08T14:26:41Z</time>
      </trkpt>
      <trkpt lat="43.86779" lon="7.27238">
        <ele>1406</ele>
        <time>2017-05-08T14:27:13Z</time>
      </trkpt>
      <trkpt lat="43.86779" lon="7.27238">
        <ele>1406</ele>
        <time>2017-05-08T14:27:43Z</time>
      </trkpt>
      <trkpt lat="43.86779" lon="7.27238">
        <ele>1405</ele>
        <time>2017-05-08T14:28:13Z</time>
      </trkpt>
      <trkpt lat="43.86779" lon="7.27238">
        <ele>1405</ele>
        <time>2017-05-08T14:28:13Z</time>
      </trkpt>
      <trkpt lat="43.86779" lon="7.27238">
        <ele>1405</ele>
        <time>2017-05-08T14:28:45Z</time>
      </trkpt>
      <trkpt lat="43.86779" lon="7.27238">
        <ele>1405</ele>
        <time>2017-05-08T14:29:15Z</time>
      </trkpt>
      <trkpt lat="43.86779" lon="7.27238">
        <ele>1411</ele>
        <time>2017-05-08T14:29:45Z</time>
      </trkpt>
      <trkpt lat="43.86779" lon="7.27238">
        <ele>1407</ele>
        <time>2017-05-08T14:29:45Z</time>
      </trkpt>
      <trkpt lat="43.86779" lon="7.27238">
        <ele>1408</ele>
        <time>2017-05-08T14:30:18Z</time>
      </trkpt>
      <trkpt lat="43.86779" lon="7.27239">
        <ele>1408</ele>
        <time>2017-05-08T14:30:48Z</time>
      </trkpt>
      <trkpt lat="43.86779" lon="7.2724">
        <ele>1406</ele>
        <time>2017-05-08T14:30:48Z</time>
      </trkpt>
      <trkpt lat="43.86782" lon="7.27237">
        <ele>1417</ele>
        <time>2017-05-08T14:31:21Z</time>
      </trkpt>
      <trkpt lat="43.86798" lon="7.27246">
        <ele>1417</ele>
        <time>2017-05-08T14:31:50Z</time>
      </trkpt>
      <trkpt lat="43.8683" lon="7.27249">
        <ele>1420</ele>
        <time>2017-05-08T14:32:20Z</time>
      </trkpt>
      <trkpt lat="43.86807" lon="7.27242">
        <ele>1395</ele>
        <time>2017-05-08T14:32:24Z</time>
      </trkpt>
      <trkpt lat="43.86856" lon="7.27255">
        <ele>1400</ele>
        <time>2017-05-08T14:32:54Z</time>
      </trkpt>
      <trkpt lat="43.86857" lon="7.27254">
        <ele>1401</ele>
        <time>2017-05-08T14:32:54Z</time>
      </trkpt>
      <trkpt lat="43.86889" lon="7.27241">
        <ele>1391</ele>
        <time>2017-05-08T14:33:27Z</time>
      </trkpt>
      <trkpt lat="43.86928" lon="7.27229">
        <ele>1384</ele>
        <time>2017-05-08T14:33:57Z</time>
      </trkpt>
      <trkpt lat="43.86957" lon="7.27227">
        <ele>1377</ele>
        <time>2017-05-08T14:34:27Z</time>
      </trkpt>
      <trkpt lat="43.86956" lon="7.2723">
        <ele>1374</ele>
        <time>2017-05-08T14:34:29Z</time>
      </trkpt>
      <trkpt lat="43.86989" lon="7.27261">
        <ele>1380</ele>
        <time>2017-05-08T14:34:59Z</time>
      </trkpt>
      <trkpt lat="43.86987" lon="7.2726">
        <ele>1376</ele>
        <time>2017-05-08T14:34:59Z</time>
      </trkpt>
      <trkpt lat="43.87013" lon="7.27292">
        <ele>1367</ele>
        <time>2017-05-08T14:35:31Z</time>
      </trkpt>
      <trkpt lat="43.87023" lon="7.27254">
        <ele>1365</ele>
        <time>2017-05-08T14:36:01Z</time>
      </trkpt>
      <trkpt lat="43.87026" lon="7.27251">
        <ele>1371</ele>
        <time>2017-05-08T14:36:01Z</time>
      </trkpt>
      <trkpt lat="43.87027" lon="7.27192">
        <ele>1372</ele>
        <time>2017-05-08T14:36:34Z</time>
      </trkpt>
      <trkpt lat="43.87019" lon="7.27165">
        <ele>1366</ele>
        <time>2017-05-08T14:37:04Z</time>
      </trkpt>
      <trkpt lat="43.87019" lon="7.27161">
        <ele>1368</ele>
        <time>2017-05-08T14:37:05Z</time>
      </trkpt>
      <trkpt lat="43.87035" lon="7.27153">
        <ele>1354</ele>
        <time>2017-05-08T14:37:37Z</time>
      </trkpt>
      <trkpt lat="43.87033" lon="7.27149">
        <ele>1349</ele>
        <time>2017-05-08T14:38:07Z</time>
      </trkpt>
      <trkpt lat="43.87022" lon="7.27135">
        <ele>1344</ele>
        <time>2017-05-08T14:38:09Z</time>
      </trkpt>
      <trkpt lat="43.86996" lon="7.271">
        <ele>1345</ele>
        <time>2017-05-08T14:38:39Z</time>
      </trkpt>
      <trkpt lat="43.86993" lon="7.27104">
        <ele>1345</ele>
        <time>2017-05-08T14:38:41Z</time>
      </trkpt>
      <trkpt lat="43.8698" lon="7.27075">
        <ele>1339</ele>
        <time>2017-05-08T14:39:12Z</time>
      </trkpt>
      <trkpt lat="43.86976" lon="7.2706">
        <ele>1324</ele>
        <time>2017-05-08T14:39:42Z</time>
      </trkpt>
      <trkpt lat="43.86942" lon="7.27063">
        <ele>1317</ele>
        <time>2017-05-08T14:40:11Z</time>
      </trkpt>
      <trkpt lat="43.86951" lon="7.27033">
        <ele>1319</ele>
        <time>2017-05-08T14:40:42Z</time>
      </trkpt>
      <trkpt lat="43.86918" lon="7.27044">
        <ele>1287</ele>
        <time>2017-05-08T14:41:14Z</time>
      </trkpt>
      <trkpt lat="43.86952" lon="7.27011">
        <ele>1294</ele>
        <time>2017-05-08T14:41:41Z</time>
      </trkpt>
      <trkpt lat="43.86949" lon="7.26996">
        <ele>1293</ele>
        <time>2017-05-08T14:42:12Z</time>
      </trkpt>
      <trkpt lat="43.86952" lon="7.26987">
        <ele>1298</ele>
        <time>2017-05-08T14:42:42Z</time>
      </trkpt>
      <trkpt lat="43.86932" lon="7.26974">
        <ele>1285</ele>
        <time>2017-05-08T14:43:11Z</time>
      </trkpt>
      <trkpt lat="43.86948" lon="7.26956">
        <ele>1283</ele>
        <time>2017-05-08T14:43:43Z</time>
      </trkpt>
      <trkpt lat="43.86974" lon="7.26951">
        <ele>1270</ele>
        <time>2017-05-08T14:44:12Z</time>
      </trkpt>
      <trkpt lat="43.86967" lon="7.26923">
        <ele>1282</ele>
        <time>2017-05-08T14:44:41Z</time>
      </trkpt>
      <trkpt lat="43.86948" lon="7.26912">
        <ele>1264</ele>
        <time>2017-05-08T14:45:12Z</time>
      </trkpt>
      <trkpt lat="43.86974" lon="7.26912">
        <ele>1268</ele>
        <time>2017-05-08T14:45:42Z</time>
      </trkpt>
      <trkpt lat="43.86969" lon="7.2691">
        <ele>1271</ele>
        <time>2017-05-08T14:45:42Z</time>
      </trkpt>
      <trkpt lat="43.86952" lon="7.26888">
        <ele>1243</ele>
        <time>2017-05-08T14:46:14Z</time>
      </trkpt>
      <trkpt lat="43.8694" lon="7.26891">
        <ele>1231</ele>
        <time>2017-05-08T14:46:44Z</time>
      </trkpt>
      <trkpt lat="43.86941" lon="7.26871">
        <ele>1232</ele>
        <time>2017-05-08T14:47:14Z</time>
      </trkpt>
      <trkpt lat="43.86932" lon="7.26866">
        <ele>1226</ele>
        <time>2017-05-08T14:47:42Z</time>
      </trkpt>
      <trkpt lat="43.86932" lon="7.2683">
        <ele>1228</ele>
        <time>2017-05-08T14:48:14Z</time>
      </trkpt>
      <trkpt lat="43.86942" lon="7.2681">
        <ele>1212</ele>
        <time>2017-05-08T14:48:45Z</time>
      </trkpt>
      <trkpt lat="43.86938" lon="7.26809">
        <ele>1211</ele>
        <time>2017-05-08T14:49:15Z</time>
      </trkpt>
      <trkpt lat="43.86956" lon="7.26798">
        <ele>1201</ele>
        <time>2017-05-08T14:49:45Z</time>
      </trkpt>
      <trkpt lat="43.86957" lon="7.26789">
        <ele>1206</ele>
        <time>2017-05-08T14:49:47Z</time>
      </trkpt>
      <trkpt lat="43.86969" lon="7.26768">
        <ele>1200</ele>
        <time>2017-05-08T14:50:16Z</time>
      </trkpt>
      <trkpt lat="43.86978" lon="7.26768">
        <ele>1197</ele>
        <time>2017-05-08T14:50:48Z</time>
      </trkpt>
      <trkpt lat="43.86956" lon="7.2674">
        <ele>1186</ele>
        <time>2017-05-08T14:51:17Z</time>
      </trkpt>
      <trkpt lat="43.86957" lon="7.26726">
        <ele>1181</ele>
        <time>2017-05-08T14:51:48Z</time>
      </trkpt>
      <trkpt lat="43.86964" lon="7.26738">
        <ele>1177</ele>
        <time>2017-05-08T14:52:18Z</time>
      </trkpt>
      <trkpt lat="43.86973" lon="7.26735">
        <ele>1172</ele>
        <time>2017-05-08T14:52:20Z</time>
      </trkpt>
      <trkpt lat="43.86996" lon="7.26708">
        <ele>1160</ele>
        <time>2017-05-08T14:52:50Z</time>
      </trkpt>
      <trkpt lat="43.86996" lon="7.26706">
        <ele>1162</ele>
        <time>2017-05-08T14:52:50Z</time>
      </trkpt>
      <trkpt lat="43.86987" lon="7.26662">
        <ele>1158</ele>
        <time>2017-05-08T14:53:23Z</time>
      </trkpt>
      <trkpt lat="43.87003" lon="7.26665">
        <ele>1150</ele>
        <time>2017-05-08T14:53:52Z</time>
      </trkpt>
      <trkpt lat="43.87015" lon="7.26639">
        <ele>1149</ele>
        <time>2017-05-08T14:54:22Z</time>
      </trkpt>
      <trkpt lat="43.87007" lon="7.26615">
        <ele>1141</ele>
        <time>2017-05-08T14:54:51Z</time>
      </trkpt>
      <trkpt lat="43.87048" lon="7.26583">
        <ele>1133</ele>
        <time>2017-05-08T14:55:22Z</time>
      </trkpt>
      <trkpt lat="43.87053" lon="7.26561">
        <ele>1125</ele>
        <time>2017-05-08T14:55:52Z</time>
      </trkpt>
      <trkpt lat="43.87081" lon="7.2652">
        <ele>1130</ele>
        <time>2017-05-08T14:56:22Z</time>
      </trkpt>
      <trkpt lat="43.87068" lon="7.26534">
        <ele>1126</ele>
        <time>2017-05-08T14:56:24Z</time>
      </trkpt>
      <trkpt lat="43.87115" lon="7.26546">
        <ele>1135</ele>
        <time>2017-05-08T14:56:55Z</time>
      </trkpt>
      <trkpt lat="43.87134" lon="7.26486">
        <ele>1120</ele>
        <time>2017-05-08T14:57:25Z</time>
      </trkpt>
      <trkpt lat="43.87121" lon="7.26435">
        <ele>1114</ele>
        <time>2017-05-08T14:57:55Z</time>
      </trkpt>
      <trkpt lat="43.87123" lon="7.26393">
        <ele>1120</ele>
        <time>2017-05-08T14:58:25Z</time>
      </trkpt>
      <trkpt lat="43.87119" lon="7.26395">
        <ele>1115</ele>
        <time>2017-05-08T14:58:26Z</time>
      </trkpt>
      <trkpt lat="43.87096" lon="7.26361">
        <ele>1092</ele>
        <time>2017-05-08T14:58:58Z</time>
      </trkpt>
      <trkpt lat="43.87115" lon="7.26287">
        <ele>1108</ele>
        <time>2017-05-08T14:59:29Z</time>
      </trkpt>
      <trkpt lat="43.87092" lon="7.26257">
        <ele>1093</ele>
        <time>2017-05-08T14:59:59Z</time>
      </trkpt>
      <trkpt lat="43.87108" lon="7.26194">
        <ele>1109</ele>
        <time>2017-05-08T15:00:29Z</time>
      </trkpt>
      <trkpt lat="43.87098" lon="7.26194">
        <ele>1102</ele>
        <time>2017-05-08T15:00:31Z</time>
      </trkpt>
      <trkpt lat="43.8709" lon="7.26142">
        <ele>1103</ele>
        <time>2017-05-08T15:01:03Z</time>
      </trkpt>
      <trkpt lat="43.87104" lon="7.26126">
        <ele>1091</ele>
        <time>2017-05-08T15:01:32Z</time>
      </trkpt>
      <trkpt lat="43.87169" lon="7.26063">
        <ele>1110</ele>
        <time>2017-05-08T15:02:02Z</time>
      </trkpt>
      <trkpt lat="43.87166" lon="7.26056">
        <ele>1110</ele>
        <time>2017-05-08T15:02:04Z</time>
      </trkpt>
      <trkpt lat="43.87157" lon="7.26017">
        <ele>1080</ele>
        <time>2017-05-08T15:02:35Z</time>
      </trkpt>
      <trkpt lat="43.87138" lon="7.25966">
        <ele>1064</ele>
        <time>2017-05-08T15:03:05Z</time>
      </trkpt>
      <trkpt lat="43.87098" lon="7.2593">
        <ele>1079</ele>
        <time>2017-05-08T15:03:34Z</time>
      </trkpt>
      <trkpt lat="43.87072" lon="7.25931">
        <ele>1062</ele>
        <time>2017-05-08T15:04:05Z</time>
      </trkpt>
      <trkpt lat="43.87048" lon="7.25925">
        <ele>1058</ele>
        <time>2017-05-08T15:04:34Z</time>
      </trkpt>
      <trkpt lat="43.8704" lon="7.25933">
        <ele>1052</ele>
        <time>2017-05-08T15:05:05Z</time>
      </trkpt>
      <trkpt lat="43.87019" lon="7.25946">
        <ele>1052</ele>
        <time>2017-05-08T15:05:37Z</time>
      </trkpt>
      <trkpt lat="43.87029" lon="7.25943">
        <ele>1031</ele>
        <time>2017-05-08T15:06:04Z</time>
      </trkpt>
      <trkpt lat="43.87006" lon="7.2594">
        <ele>1031</ele>
        <time>2017-05-08T15:06:34Z</time>
      </trkpt>
      <trkpt lat="43.87011" lon="7.25939">
        <ele>1045</ele>
        <time>2017-05-08T15:06:37Z</time>
      </trkpt>
      <trkpt lat="43.86998" lon="7.25951">
        <ele>1042</ele>
        <time>2017-05-08T15:07:07Z</time>
      </trkpt>
      <trkpt lat="43.87009" lon="7.25937">
        <ele>1047</ele>
        <time>2017-05-08T15:07:38Z</time>
      </trkpt>
      <trkpt lat="43.86973" lon="7.2591">
        <ele>1083</ele>
        <time>2017-05-08T15:08:07Z</time>
      </trkpt>
      <trkpt lat="43.86944" lon="7.25939">
        <ele>1020</ele>
        <time>2017-05-08T15:08:37Z</time>
      </trkpt>
      <trkpt lat="43.86945" lon="7.25942">
        <ele>1017</ele>
        <time>2017-05-08T15:08:38Z</time>
      </trkpt>
      <trkpt lat="43.86928" lon="7.2594">
        <ele>1006</ele>
        <time>2017-05-08T15:09:10Z</time>
      </trkpt>
      <trkpt lat="43.86901" lon="7.2593">
        <ele>1017</ele>
        <time>2017-05-08T15:09:40Z</time>
      </trkpt>
      <trkpt lat="43.86902" lon="7.25925">
        <ele>1017</ele>
        <time>2017-05-08T15:09:40Z</time>
      </trkpt>
      <trkpt lat="43.86887" lon="7.25894">
        <ele>1007</ele>
        <time>2017-05-08T15:10:12Z</time>
      </trkpt>
      <trkpt lat="43.86868" lon="7.25866">
        <ele>999</ele>
        <time>2017-05-08T15:10:43Z</time>
      </trkpt>
      <trkpt lat="43.86839" lon="7.25863">
        <ele>1005</ele>
        <time>2017-05-08T15:11:12Z</time>
      </trkpt>
      <trkpt lat="43.86831" lon="7.25845">
        <ele>974</ele>
        <time>2017-05-08T15:11:44Z</time>
      </trkpt>
      <trkpt lat="43.86832" lon="7.25842">
        <ele>965</ele>
        <time>2017-05-08T15:12:13Z</time>
      </trkpt>
      <trkpt lat="43.86823" lon="7.25831">
        <ele>970</ele>
        <time>2017-05-08T15:12:43Z</time>
      </trkpt>
      <trkpt lat="43.86827" lon="7.25841">
        <ele>970</ele>
        <time>2017-05-08T15:12:45Z</time>
      </trkpt>
      <trkpt lat="43.86795" lon="7.25802">
        <ele>980</ele>
        <time>2017-05-08T15:13:15Z</time>
      </trkpt>
      <trkpt lat="43.86772" lon="7.25765">
        <ele>968</ele>
        <time>2017-05-08T15:13:46Z</time>
      </trkpt>
      <trkpt lat="43.86733" lon="7.25776">
        <ele>959</ele>
        <time>2017-05-08T15:14:16Z</time>
      </trkpt>
      <trkpt lat="43.86741" lon="7.25804">
        <ele>954</ele>
        <time>2017-05-08T15:14:48Z</time>
      </trkpt>
      <trkpt lat="43.86746" lon="7.25828">
        <ele>946</ele>
        <time>2017-05-08T15:15:15Z</time>
      </trkpt>
      <trkpt lat="43.86723" lon="7.25805">
        <ele>942</ele>
        <time>2017-05-08T15:15:44Z</time>
      </trkpt>
      <trkpt lat="43.86718" lon="7.25799">
        <ele>933</ele>
        <time>2017-05-08T15:16:16Z</time>
      </trkpt>
      <trkpt lat="43.86694" lon="7.25769">
        <ele>932</ele>
        <time>2017-05-08T15:16:44Z</time>
      </trkpt>
      <trkpt lat="43.86674" lon="7.25727">
        <ele>928</ele>
        <time>2017-05-08T15:17:15Z</time>
      </trkpt>
      <trkpt lat="43.86658" lon="7.25683">
        <ele>916</ele>
        <time>2017-05-08T15:17:45Z</time>
      </trkpt>
      <trkpt lat="43.86648" lon="7.25693">
        <ele>917</ele>
        <time>2017-05-08T15:17:47Z</time>
      </trkpt>
      <trkpt lat="43.8661" lon="7.25661">
        <ele>921</ele>
        <time>2017-05-08T15:18:18Z</time>
      </trkpt>
      <trkpt lat="43.86573" lon="7.2561">
        <ele>917</ele>
        <time>2017-05-08T15:18:48Z</time>
      </trkpt>
      <trkpt lat="43.86552" lon="7.25575">
        <ele>908</ele>
        <time>2017-05-08T15:19:17Z</time>
      </trkpt>
      <trkpt lat="43.86545" lon="7.25535">
        <ele>896</ele>
        <time>2017-05-08T15:19:48Z</time>
      </trkpt>
      <trkpt lat="43.86533" lon="7.25539">
        <ele>882</ele>
        <time>2017-05-08T15:20:17Z</time>
      </trkpt>
      <trkpt lat="43.86516" lon="7.25495">
        <ele>879</ele>
        <time>2017-05-08T15:20:48Z</time>
      </trkpt>
      <trkpt lat="43.86491" lon="7.25451">
        <ele>870</ele>
        <time>2017-05-08T15:21:19Z</time>
      </trkpt>
      <trkpt lat="43.8647" lon="7.25421">
        <ele>864</ele>
        <time>2017-05-08T15:21:48Z</time>
      </trkpt>
      <trkpt lat="43.86458" lon="7.25414">
        <ele>856</ele>
        <time>2017-05-08T15:22:18Z</time>
      </trkpt>
      <trkpt lat="43.86457" lon="7.25416">
        <ele>854</ele>
        <time>2017-05-08T15:22:19Z</time>
      </trkpt>
      <trkpt lat="43.86451" lon="7.2537">
        <ele>845</ele>
        <time>2017-05-08T15:22:50Z</time>
      </trkpt>
      <trkpt lat="43.86442" lon="7.25369">
        <ele>852</ele>
        <time>2017-05-08T15:23:20Z</time>
      </trkpt>
      <trkpt lat="43.86438" lon="7.25373">
        <ele>844</ele>
        <time>2017-05-08T15:23:20Z</time>
      </trkpt>
      <trkpt lat="43.86422" lon="7.2537">
        <ele>839</ele>
        <time>2017-05-08T15:23:52Z</time>
      </trkpt>
      <trkpt lat="43.86414" lon="7.2535">
        <ele>829</ele>
        <time>2017-05-08T15:24:22Z</time>
      </trkpt>
      <trkpt lat="43.86417" lon="7.25316">
        <ele>827</ele>
        <time>2017-05-08T15:24:52Z</time>
      </trkpt>
      <trkpt lat="43.86411" lon="7.25316">
        <ele>817</ele>
        <time>2017-05-08T15:24:54Z</time>
      </trkpt>
      <trkpt lat="43.86398" lon="7.25284">
        <ele>814</ele>
        <time>2017-05-08T15:25:23Z</time>
      </trkpt>
      <trkpt lat="43.86389" lon="7.25252">
        <ele>805</ele>
        <time>2017-05-08T15:25:54Z</time>
      </trkpt>
      <trkpt lat="43.86377" lon="7.25209">
        <ele>804</ele>
        <time>2017-05-08T15:26:24Z</time>
      </trkpt>
      <trkpt lat="43.86371" lon="7.25191">
        <ele>813</ele>
        <time>2017-05-08T15:26:55Z</time>
      </trkpt>
      <trkpt lat="43.86366" lon="7.2517">
        <ele>794</ele>
        <time>2017-05-08T15:27:26Z</time>
      </trkpt>
      <trkpt lat="43.86344" lon="7.25162">
        <ele>786</ele>
        <time>2017-05-08T15:27:55Z</time>
      </trkpt>
      <trkpt lat="43.86329" lon="7.25139">
        <ele>778</ele>
        <time>2017-05-08T15:28:24Z</time>
      </trkpt>
      <trkpt lat="43.86318" lon="7.25089">
        <ele>777</ele>
        <time>2017-05-08T15:28:54Z</time>
      </trkpt>
      <trkpt lat="43.86307" lon="7.25055">
        <ele>776</ele>
        <time>2017-05-08T15:29:25Z</time>
      </trkpt>
      <trkpt lat="43.86296" lon="7.25046">
        <ele>772</ele>
        <time>2017-05-08T15:29:55Z</time>
      </trkpt>
      <trkpt lat="43.86272" lon="7.25017">
        <ele>776</ele>
        <time>2017-05-08T15:30:25Z</time>
      </trkpt>
      <trkpt lat="43.86273" lon="7.25019">
        <ele>778</ele>
        <time>2017-05-08T15:30:25Z</time>
      </trkpt>
      <trkpt lat="43.86269" lon="7.24987">
        <ele>762</ele>
        <time>2017-05-08T15:30:56Z</time>
      </trkpt>
      <trkpt lat="43.86257" lon="7.24979">
        <ele>743</ele>
        <time>2017-05-08T15:31:27Z</time>
      </trkpt>
      <trkpt lat="43.86254" lon="7.24939">
        <ele>750</ele>
        <time>2017-05-08T15:31:57Z</time>
      </trkpt>
      <trkpt lat="43.86245" lon="7.24934">
        <ele>749</ele>
        <time>2017-05-08T15:31:57Z</time>
      </trkpt>
      <trkpt lat="43.86242" lon="7.24912">
        <ele>741</ele>
        <time>2017-05-08T15:32:29Z</time>
      </trkpt>
      <trkpt lat="43.86232" lon="7.24888">
        <ele>737</ele>
        <time>2017-05-08T15:32:59Z</time>
      </trkpt>
      <trkpt lat="43.86209" lon="7.24886">
        <ele>732</ele>
        <time>2017-05-08T15:33:27Z</time>
      </trkpt>
      <trkpt lat="43.86203" lon="7.24846">
        <ele>725</ele>
        <time>2017-05-08T15:33:59Z</time>
      </trkpt>
      <trkpt lat="43.86188" lon="7.24827">
        <ele>722</ele>
        <time>2017-05-08T15:34:29Z</time>
      </trkpt>
      <trkpt lat="43.86179" lon="7.24795">
        <ele>725</ele>
        <time>2017-05-08T15:35:00Z</time>
      </trkpt>
      <trkpt lat="43.86186" lon="7.24765">
        <ele>720</ele>
        <time>2017-05-08T15:35:30Z</time>
      </trkpt>
      <trkpt lat="43.86184" lon="7.24752">
        <ele>714</ele>
        <time>2017-05-08T15:35:30Z</time>
      </trkpt>
      <trkpt lat="43.86186" lon="7.24722">
        <ele>704</ele>
        <time>2017-05-08T15:36:02Z</time>
      </trkpt>
      <trkpt lat="43.86172" lon="7.24684">
        <ele>694</ele>
        <time>2017-05-08T15:36:32Z</time>
      </trkpt>
      <trkpt lat="43.8617" lon="7.24666">
        <ele>692</ele>
        <time>2017-05-08T15:37:02Z</time>
      </trkpt>
      <trkpt lat="43.86168" lon="7.24664">
        <ele>691</ele>
        <time>2017-05-08T15:37:02Z</time>
      </trkpt>
      <trkpt lat="43.86209" lon="7.24631">
        <ele>687</ele>
        <time>2017-05-08T15:37:34Z</time>
      </trkpt>
      <trkpt lat="43.86212" lon="7.24577">
        <ele>701</ele>
        <time>2017-05-08T15:38:03Z</time>
      </trkpt>
      <trkpt lat="43.86212" lon="7.24521">
        <ele>698</ele>
        <time>2017-05-08T15:38:35Z</time>
      </trkpt>
      <trkpt lat="43.8619" lon="7.24472">
        <ele>692</ele>
        <time>2017-05-08T15:39:04Z</time>
      </trkpt>
      <trkpt lat="43.86177" lon="7.24423">
        <ele>699</ele>
        <time>2017-05-08T15:39:35Z</time>
      </trkpt>
      <trkpt lat="43.8619" lon="7.2438">
        <ele>689</ele>
        <time>2017-05-08T15:40:04Z</time>
      </trkpt>
      <trkpt lat="43.86195" lon="7.24332">
        <ele>687</ele>
        <time>2017-05-08T15:40:32Z</time>
      </trkpt>
      <trkpt lat="43.86195" lon="7.24275">
        <ele>683</ele>
        <time>2017-05-08T15:41:05Z</time>
      </trkpt>
      <trkpt lat="43.86193" lon="7.24213">
        <ele>684</ele>
        <time>2017-05-08T15:41:40Z</time>
      </trkpt>
      <trkpt lat="43.86205" lon="7.24177">
        <ele>684</ele>
        <time>2017-05-08T15:42:20Z</time>
      </trkpt>
      <trkpt lat="43.86191" lon="7.2414">
        <ele>685</ele>
        <time>2017-05-08T15:42:32Z</time>
      </trkpt>
      <trkpt lat="43.8616" lon="7.24116">
        <ele>691</ele>
        <time>2017-05-08T15:43:05Z</time>
      </trkpt>
      <trkpt lat="43.86154" lon="7.24088">
        <ele>678</ele>
        <time>2017-05-08T15:43:34Z</time>
      </trkpt>
      <trkpt lat="43.86144" lon="7.24042">
        <ele>678</ele>
        <time>2017-05-08T15:44:05Z</time>
      </trkpt>
      <trkpt lat="43.86137" lon="7.24005">
        <ele>686</ele>
        <time>2017-05-08T15:44:34Z</time>
      </trkpt>
      <trkpt lat="43.86144" lon="7.23966">
        <ele>673</ele>
        <time>2017-05-08T15:45:04Z</time>
      </trkpt>
      <trkpt lat="43.86143" lon="7.23967">
        <ele>674</ele>
        <time>2017-05-08T15:45:04Z</time>
      </trkpt>
      <trkpt lat="43.86134" lon="7.23916">
        <ele>690</ele>
        <time>2017-05-08T15:45:36Z</time>
      </trkpt>
      <trkpt lat="43.86136" lon="7.23873">
        <ele>671</ele>
        <time>2017-05-08T15:46:07Z</time>
      </trkpt>
      <trkpt lat="43.86139" lon="7.23829">
        <ele>682</ele>
        <time>2017-05-08T15:46:37Z</time>
      </trkpt>
      <trkpt lat="43.8616" lon="7.23795">
        <ele>664</ele>
        <time>2017-05-08T15:47:06Z</time>
      </trkpt>
      <trkpt lat="43.8617" lon="7.23769">
        <ele>658</ele>
        <time>2017-05-08T15:47:36Z</time>
      </trkpt>
      <trkpt lat="43.8618" lon="7.23752">
        <ele>647</ele>
        <time>2017-05-08T15:48:07Z</time>
      </trkpt>
      <trkpt lat="43.86194" lon="7.23726">
        <ele>651</ele>
        <time>2017-05-08T15:48:37Z</time>
      </trkpt>
      <trkpt lat="43.86212" lon="7.23702">
        <ele>645</ele>
        <time>2017-05-08T15:49:07Z</time>
      </trkpt>
      <trkpt lat="43.862" lon="7.23697">
        <ele>646</ele>
        <time>2017-05-08T15:49:07Z</time>
      </trkpt>
      <trkpt lat="43.86205" lon="7.23672">
        <ele>639</ele>
        <time>2017-05-08T15:49:39Z</time>
      </trkpt>
      <trkpt lat="43.86211" lon="7.2363">
        <ele>648</ele>
        <time>2017-05-08T15:50:10Z</time>
      </trkpt>
      <trkpt lat="43.86221" lon="7.23592">
        <ele>644</ele>
        <time>2017-05-08T15:50:40Z</time>
      </trkpt>
      <trkpt lat="43.86218" lon="7.23557">
        <ele>636</ele>
        <time>2017-05-08T15:51:10Z</time>
      </trkpt>
      <trkpt lat="43.86217" lon="7.23552">
        <ele>635</ele>
        <time>2017-05-08T15:51:10Z</time>
      </trkpt>
      <trkpt lat="43.86227" lon="7.23511">
        <ele>613</ele>
        <time>2017-05-08T15:51:43Z</time>
      </trkpt>
      <trkpt lat="43.86207" lon="7.23492">
        <ele>610</ele>
        <time>2017-05-08T15:52:12Z</time>
      </trkpt>
      <trkpt lat="43.86182" lon="7.23491">
        <ele>610</ele>
        <time>2017-05-08T15:52:40Z</time>
      </trkpt>
      <trkpt lat="43.86173" lon="7.23435">
        <ele>611</ele>
        <time>2017-05-08T15:53:10Z</time>
      </trkpt>
      <trkpt lat="43.86173" lon="7.23436">
        <ele>612</ele>
        <time>2017-05-08T15:53:13Z</time>
      </trkpt>
      <trkpt lat="43.86155" lon="7.23401">
        <ele>598</ele>
        <time>2017-05-08T15:53:44Z</time>
      </trkpt>
      <trkpt lat="43.86141" lon="7.23407">
        <ele>585</ele>
        <time>2017-05-08T15:54:13Z</time>
      </trkpt>
      <trkpt lat="43.86115" lon="7.23411">
        <ele>578</ele>
        <time>2017-05-08T15:54:44Z</time>
      </trkpt>
      <trkpt lat="43.8611" lon="7.23404">
        <ele>572</ele>
        <time>2017-05-08T15:55:13Z</time>
      </trkpt>
      <trkpt lat="43.86098" lon="7.23377">
        <ele>582</ele>
        <time>2017-05-08T15:55:43Z</time>
      </trkpt>
      <trkpt lat="43.86103" lon="7.23375">
        <ele>582</ele>
        <time>2017-05-08T15:55:45Z</time>
      </trkpt>
      <trkpt lat="43.86083" lon="7.2336">
        <ele>556</ele>
        <time>2017-05-08T15:56:15Z</time>
      </trkpt>
      <trkpt lat="43.86081" lon="7.23354">
        <ele>556</ele>
        <time>2017-05-08T15:56:15Z</time>
      </trkpt>
      <trkpt lat="43.86063" lon="7.23314">
        <ele>570</ele>
        <time>2017-05-08T15:56:47Z</time>
      </trkpt>
      <trkpt lat="43.86065" lon="7.23319">
        <ele>574</ele>
        <time>2017-05-08T15:57:15Z</time>
      </trkpt>
      <trkpt lat="43.8606" lon="7.23297">
        <ele>546</ele>
        <time>2017-05-08T15:57:48Z</time>
      </trkpt>
      <trkpt lat="43.86032" lon="7.233">
        <ele>529</ele>
        <time>2017-05-08T15:58:17Z</time>
      </trkpt>
      <trkpt lat="43.85995" lon="7.23247">
        <ele>535</ele>
        <time>2017-05-08T15:58:47Z</time>
      </trkpt>
      <trkpt lat="43.86004" lon="7.23251">
        <ele>539</ele>
        <time>2017-05-08T15:58:47Z</time>
      </trkpt>
      <trkpt lat="43.86019" lon="7.23212">
        <ele>526</ele>
        <time>2017-05-08T15:59:19Z</time>
      </trkpt>
      <trkpt lat="43.86012" lon="7.23156">
        <ele>527</ele>
        <time>2017-05-08T15:59:50Z</time>
      </trkpt>
      <trkpt lat="43.86018" lon="7.23105">
        <ele>534</ele>
        <time>2017-05-08T16:00:20Z</time>
      </trkpt>
      <trkpt lat="43.86021" lon="7.23102">
        <ele>532</ele>
        <time>2017-05-08T16:00:20Z</time>
      </trkpt>
      <trkpt lat="43.86007" lon="7.23046">
        <ele>525</ele>
        <time>2017-05-08T16:00:52Z</time>
      </trkpt>
      <trkpt lat="43.85998" lon="7.23002">
        <ele>544</ele>
        <time>2017-05-08T16:01:23Z</time>
      </trkpt>
      <trkpt lat="43.86003" lon="7.22958">
        <ele>530</ele>
        <time>2017-05-08T16:01:53Z</time>
      </trkpt>
      <trkpt lat="43.86008" lon="7.22954">
        <ele>529</ele>
        <time>2017-05-08T16:01:53Z</time>
      </trkpt>
      <trkpt lat="43.86008" lon="7.22905">
        <ele>526</ele>
        <time>2017-05-08T16:02:26Z</time>
      </trkpt>
      <trkpt lat="43.85976" lon="7.22903">
        <ele>511</ele>
        <time>2017-05-08T16:02:55Z</time>
      </trkpt>
      <trkpt lat="43.85924" lon="7.22913">
        <ele>502</ele>
        <time>2017-05-08T16:03:26Z</time>
      </trkpt>
      <trkpt lat="43.85895" lon="7.22914">
        <ele>506</ele>
        <time>2017-05-08T16:03:56Z</time>
      </trkpt>
      <trkpt lat="43.85898" lon="7.22916">
        <ele>506</ele>
        <time>2017-05-08T16:03:56Z</time>
      </trkpt>
      <trkpt lat="43.85853" lon="7.22899">
        <ele>507</ele>
        <time>2017-05-08T16:04:29Z</time>
      </trkpt>
      <trkpt lat="43.8581" lon="7.2289">
        <ele>518</ele>
        <time>2017-05-08T16:05:01Z</time>
      </trkpt>
      <trkpt lat="43.85785" lon="7.22882">
        <ele>495</ele>
        <time>2017-05-08T16:05:29Z</time>
      </trkpt>
      <trkpt lat="43.85798" lon="7.22917">
        <ele>513</ele>
        <time>2017-05-08T16:06:00Z</time>
      </trkpt>
    </trkseg>
  </trk>
</gpx>